sensor_id;sensor_type;location;lat;lon;timestamp;P1;durP1;ratioP1;P2;durP2;ratioP2
77026;SDS011;65956;52.986;17.490;2024-01-30T00:00:32;28.20;;;13.80;;
77026;SDS011;65956;52.986;17.490;2024-01-30T00:03:18;30.40;;;14.60;;
77026;SDS011;65956;52.986;17.490;2024-01-30T00:05:44;27.10;;;13.40;;
77026;SDS011;65956;52.986;17.490;2024-01-30T00:08:11;28.90;;;13.70;;
77026;SDS011;65956;52.986;17.490;2024-01-30T00:10:37;27.00;;;13.80;;
77026;SDS011;65956;52.986;17.490;2024-01-30T00:13:03;30.20;;;14.50;;
77026;SDS011;65956;52.986;17.490;2024-01-30T00:15:29;27.20;;;14.10;;
77026;SDS011;65956;52.986;17.490;2024-01-30T00:17:56;27.90;;;14.50;;
77026;SDS011;65956;52.986;17.490;2024-01-30T00:20:22;28.00;;;13.40;;
77026;SDS011;65956;52.986;17.490;2024-01-30T00:22:48;28.80;;;15.40;;
77026;SDS011;65956;52.986;17.490;2024-01-30T00:25:15;27.20;;;14.00;;
77026;SDS011;65956;52.986;17.490;2024-01-30T00:27:41;27.30;;;14.00;;
77026;SDS011;65956;52.986;17.490;2024-01-30T00:30:07;29.10;;;14.20;;
77026;SDS011;65956;52.986;17.490;2024-01-30T00:32:34;27.50;;;13.70;;
77026;SDS011;65956;52.986;17.490;2024-01-30T00:35:00;29.10;;;14.40;;
77026;SDS011;65956;52.986;17.490;2024-01-30T00:37:26;26.40;;;13.70;;
77026;SDS011;65956;52.986;17.490;2024-01-30T00:39:52;26.10;;;13.20;;
77026;SDS011;65956;52.986;17.490;2024-01-30T00:42:18;26.20;;;13.60;;
77026;SDS011;65956;52.986;17.490;2024-01-30T00:44:45;31.20;;;14.10;;
77026;SDS011;65956;52.986;17.490;2024-01-30T00:47:11;29.70;;;14.70;;
77026;SDS011;65956;52.986;17.490;2024-01-30T00:49:37;24.60;;;13.30;;
77026;SDS011;65956;52.986;17.490;2024-01-30T00:52:03;30.60;;;13.90;;
77026;SDS011;65956;52.986;17.490;2024-01-30T00:54:30;31.10;;;14.50;;
77026;SDS011;65956;52.986;17.490;2024-01-30T00:56:56;29.10;;;14.30;;
77026;SDS011;65956;52.986;17.490;2024-01-30T00:59:22;29.30;;;14.10;;
77026;SDS011;65956;52.986;17.490;2024-01-30T01:01:48;29.40;;;14.70;;
77026;SDS011;65956;52.986;17.490;2024-01-30T01:04:15;28.90;;;15.40;;
77026;SDS011;65956;52.986;17.490;2024-01-30T01:06:41;33.60;;;14.60;;
77026;SDS011;65956;52.986;17.490;2024-01-30T01:09:12;27.00;;;13.80;;
77026;SDS011;65956;52.986;17.490;2024-01-30T01:11:39;31.70;;;14.30;;
77026;SDS011;65956;52.986;17.490;2024-01-30T01:14:05;30.10;;;14.80;;
77026;SDS011;65956;52.986;17.490;2024-01-30T01:16:31;28.10;;;14.60;;
77026;SDS011;65956;52.986;17.490;2024-01-30T01:18:59;27.10;;;13.90;;
77026;SDS011;65956;52.986;17.490;2024-01-30T01:21:26;27.20;;;14.60;;
77026;SDS011;65956;52.986;17.490;2024-01-30T01:23:52;31.80;;;14.50;;
77026;SDS011;65956;52.986;17.490;2024-01-30T01:26:18;29.60;;;15.00;;
77026;SDS011;65956;52.986;17.490;2024-01-30T01:28:44;28.30;;;13.70;;
77026;SDS011;65956;52.986;17.490;2024-01-30T01:31:11;30.70;;;13.80;;
77026;SDS011;65956;52.986;17.490;2024-01-30T01:33:37;34.00;;;15.70;;
77026;SDS011;65956;52.986;17.490;2024-01-30T01:36:03;30.10;;;15.30;;
77026;SDS011;65956;52.986;17.490;2024-01-30T01:38:30;37.70;;;15.80;;
77026;SDS011;65956;52.986;17.490;2024-01-30T01:40:56;28.80;;;14.00;;
77026;SDS011;65956;52.986;17.490;2024-01-30T01:43:22;26.40;;;13.60;;
77026;SDS011;65956;52.986;17.490;2024-01-30T01:45:48;33.70;;;14.50;;
77026;SDS011;65956;52.986;17.490;2024-01-30T01:48:14;28.30;;;13.70;;
77026;SDS011;65956;52.986;17.490;2024-01-30T01:50:41;32.30;;;16.10;;
77026;SDS011;65956;52.986;17.490;2024-01-30T01:53:08;28.00;;;14.70;;
77026;SDS011;65956;52.986;17.490;2024-01-30T01:55:35;28.10;;;14.20;;
77026;SDS011;65956;52.986;17.490;2024-01-30T01:58:01;30.90;;;14.80;;
77026;SDS011;65956;52.986;17.490;2024-01-30T02:00:28;26.70;;;14.10;;
77026;SDS011;65956;52.986;17.490;2024-01-30T02:02:54;30.20;;;14.40;;
77026;SDS011;65956;52.986;17.490;2024-01-30T02:05:21;29.10;;;13.80;;
77026;SDS011;65956;52.986;17.490;2024-01-30T02:07:47;27.80;;;13.70;;
77026;SDS011;65956;52.986;17.490;2024-01-30T02:10:14;27.60;;;13.80;;
77026;SDS011;65956;52.986;17.490;2024-01-30T02:12:40;32.40;;;13.50;;
77026;SDS011;65956;52.986;17.490;2024-01-30T02:15:06;26.80;;;13.10;;
77026;SDS011;65956;52.986;17.490;2024-01-30T02:17:33;27.00;;;14.10;;
77026;SDS011;65956;52.986;17.490;2024-01-30T02:19:59;27.90;;;13.80;;
77026;SDS011;65956;52.986;17.490;2024-01-30T02:22:26;28.90;;;14.50;;
77026;SDS011;65956;52.986;17.490;2024-01-30T02:24:52;26.80;;;13.30;;
77026;SDS011;65956;52.986;17.490;2024-01-30T02:27:19;26.30;;;14.40;;
77026;SDS011;65956;52.986;17.490;2024-01-30T02:29:45;30.40;;;13.80;;
77026;SDS011;65956;52.986;17.490;2024-01-30T02:32:11;27.50;;;13.80;;
77026;SDS011;65956;52.986;17.490;2024-01-30T02:34:38;29.90;;;14.30;;
77026;SDS011;65956;52.986;17.490;2024-01-30T02:37:04;25.50;;;12.70;;
77026;SDS011;65956;52.986;17.490;2024-01-30T02:39:30;30.20;;;14.10;;
77026;SDS011;65956;52.986;17.490;2024-01-30T02:41:56;29.40;;;14.50;;
77026;SDS011;65956;52.986;17.490;2024-01-30T02:44:23;26.30;;;13.70;;
77026;SDS011;65956;52.986;17.490;2024-01-30T02:46:49;31.10;;;15.20;;
77026;SDS011;65956;52.986;17.490;2024-01-30T02:49:15;28.80;;;15.00;;
77026;SDS011;65956;52.986;17.490;2024-01-30T02:51:41;27.80;;;13.90;;
77026;SDS011;65956;52.986;17.490;2024-01-30T02:54:07;27.80;;;14.70;;
77026;SDS011;65956;52.986;17.490;2024-01-30T02:56:34;28.40;;;14.30;;
77026;SDS011;65956;52.986;17.490;2024-01-30T02:59:01;31.50;;;15.00;;
77026;SDS011;65956;52.986;17.490;2024-01-30T03:01:27;29.00;;;15.40;;
77026;SDS011;65956;52.986;17.490;2024-01-30T03:03:53;30.50;;;14.60;;
77026;SDS011;65956;52.986;17.490;2024-01-30T03:06:19;29.50;;;14.20;;
77026;SDS011;65956;52.986;17.490;2024-01-30T03:08:46;31.20;;;14.50;;
77026;SDS011;65956;52.986;17.490;2024-01-30T03:11:12;29.80;;;13.90;;
77026;SDS011;65956;52.986;17.490;2024-01-30T03:13:38;28.50;;;14.10;;
77026;SDS011;65956;52.986;17.490;2024-01-30T03:16:04;28.50;;;14.70;;
77026;SDS011;65956;52.986;17.490;2024-01-30T03:18:31;28.40;;;14.30;;
77026;SDS011;65956;52.986;17.490;2024-01-30T03:20:57;28.70;;;14.70;;
77026;SDS011;65956;52.986;17.490;2024-01-30T03:23:23;26.80;;;13.60;;
77026;SDS011;65956;52.986;17.490;2024-01-30T03:25:50;28.80;;;13.70;;
77026;SDS011;65956;52.986;17.490;2024-01-30T03:28:16;29.00;;;13.90;;
77026;SDS011;65956;52.986;17.490;2024-01-30T03:30:43;31.00;;;15.40;;
77026;SDS011;65956;52.986;17.490;2024-01-30T03:33:09;27.10;;;13.70;;
77026;SDS011;65956;52.986;17.490;2024-01-30T03:35:35;28.30;;;14.10;;
77026;SDS011;65956;52.986;17.490;2024-01-30T03:38:01;30.90;;;14.60;;
77026;SDS011;65956;52.986;17.490;2024-01-30T03:40:27;29.30;;;14.10;;
77026;SDS011;65956;52.986;17.490;2024-01-30T03:42:53;29.70;;;14.90;;
77026;SDS011;65956;52.986;17.490;2024-01-30T03:45:19;28.90;;;14.20;;
77026;SDS011;65956;52.986;17.490;2024-01-30T03:47:46;26.40;;;13.50;;
77026;SDS011;65956;52.986;17.490;2024-01-30T03:50:12;28.20;;;13.30;;
77026;SDS011;65956;52.986;17.490;2024-01-30T03:52:38;30.30;;;14.60;;
77026;SDS011;65956;52.986;17.490;2024-01-30T03:55:04;28.90;;;14.30;;
77026;SDS011;65956;52.986;17.490;2024-01-30T03:57:31;26.40;;;13.60;;
77026;SDS011;65956;52.986;17.490;2024-01-30T03:59:57;30.20;;;13.80;;
77026;SDS011;65956;52.986;17.490;2024-01-30T04:02:23;28.40;;;13.50;;
77026;SDS011;65956;52.986;17.490;2024-01-30T04:04:49;26.50;;;12.90;;
77026;SDS011;65956;52.986;17.490;2024-01-30T04:07:16;25.10;;;13.30;;
77026;SDS011;65956;52.986;17.490;2024-01-30T04:09:42;26.70;;;13.70;;
77026;SDS011;65956;52.986;17.490;2024-01-30T04:12:08;26.10;;;12.80;;
77026;SDS011;65956;52.986;17.490;2024-01-30T04:14:34;27.00;;;13.10;;
77026;SDS011;65956;52.986;17.490;2024-01-30T04:17:01;27.10;;;13.90;;
77026;SDS011;65956;52.986;17.490;2024-01-30T04:19:27;26.30;;;12.90;;
77026;SDS011;65956;52.986;17.490;2024-01-30T04:21:53;27.60;;;13.40;;
77026;SDS011;65956;52.986;17.490;2024-01-30T04:24:19;26.90;;;13.50;;
77026;SDS011;65956;52.986;17.490;2024-01-30T04:26:57;24.60;;;13.30;;
77026;SDS011;65956;52.986;17.490;2024-01-30T04:29:24;31.50;;;14.50;;
77026;SDS011;65956;52.986;17.490;2024-01-30T04:31:50;27.20;;;13.40;;
77026;SDS011;65956;52.986;17.490;2024-01-30T04:34:16;28.70;;;14.10;;
77026;SDS011;65956;52.986;17.490;2024-01-30T04:36:44;28.60;;;13.50;;
77026;SDS011;65956;52.986;17.490;2024-01-30T04:39:11;27.30;;;13.30;;
77026;SDS011;65956;52.986;17.490;2024-01-30T04:41:38;27.20;;;13.40;;
77026;SDS011;65956;52.986;17.490;2024-01-30T04:44:04;26.70;;;14.50;;
77026;SDS011;65956;52.986;17.490;2024-01-30T04:46:30;31.80;;;15.10;;
77026;SDS011;65956;52.986;17.490;2024-01-30T04:48:57;33.30;;;16.10;;
77026;SDS011;65956;52.986;17.490;2024-01-30T04:51:23;26.30;;;14.10;;
77026;SDS011;65956;52.986;17.490;2024-01-30T04:53:49;28.50;;;13.40;;
77026;SDS011;65956;52.986;17.490;2024-01-30T04:56:15;27.60;;;13.20;;
77026;SDS011;65956;52.986;17.490;2024-01-30T04:58:41;23.50;;;13.40;;
77026;SDS011;65956;52.986;17.490;2024-01-30T05:01:07;31.70;;;13.40;;
77026;SDS011;65956;52.986;17.490;2024-01-30T05:03:34;26.40;;;13.40;;
77026;SDS011;65956;52.986;17.490;2024-01-30T05:06:00;25.30;;;12.90;;
77026;SDS011;65956;52.986;17.490;2024-01-30T05:08:27;27.40;;;13.70;;
77026;SDS011;65956;52.986;17.490;2024-01-30T05:10:53;27.40;;;15.10;;
77026;SDS011;65956;52.986;17.490;2024-01-30T05:13:19;26.50;;;14.50;;
77026;SDS011;65956;52.986;17.490;2024-01-30T05:15:45;26.80;;;13.40;;
77026;SDS011;65956;52.986;17.490;2024-01-30T05:18:11;24.40;;;12.30;;
77026;SDS011;65956;52.986;17.490;2024-01-30T05:20:37;23.90;;;12.80;;
77026;SDS011;65956;52.986;17.490;2024-01-30T05:23:03;26.30;;;13.70;;
77026;SDS011;65956;52.986;17.490;2024-01-30T05:25:29;27.40;;;13.10;;
77026;SDS011;65956;52.986;17.490;2024-01-30T05:27:55;27.70;;;13.60;;
77026;SDS011;65956;52.986;17.490;2024-01-30T05:30:21;27.30;;;13.90;;
77026;SDS011;65956;52.986;17.490;2024-01-30T05:32:48;30.10;;;14.20;;
77026;SDS011;65956;52.986;17.490;2024-01-30T05:35:15;25.90;;;13.10;;
77026;SDS011;65956;52.986;17.490;2024-01-30T05:37:42;25.70;;;13.40;;
77026;SDS011;65956;52.986;17.490;2024-01-30T05:40:08;31.80;;;14.30;;
77026;SDS011;65956;52.986;17.490;2024-01-30T05:42:34;28.20;;;13.80;;
77026;SDS011;65956;52.986;17.490;2024-01-30T05:45:00;25.60;;;13.90;;
77026;SDS011;65956;52.986;17.490;2024-01-30T05:47:26;27.60;;;14.00;;
77026;SDS011;65956;52.986;17.490;2024-01-30T05:49:53;25.80;;;14.10;;
77026;SDS011;65956;52.986;17.490;2024-01-30T05:52:19;27.50;;;13.70;;
77026;SDS011;65956;52.986;17.490;2024-01-30T05:54:45;27.20;;;14.20;;
77026;SDS011;65956;52.986;17.490;2024-01-30T05:57:11;29.40;;;13.80;;
77026;SDS011;65956;52.986;17.490;2024-01-30T05:59:37;32.80;;;15.10;;
77026;SDS011;65956;52.986;17.490;2024-01-30T06:02:03;30.60;;;14.10;;
77026;SDS011;65956;52.986;17.490;2024-01-30T06:04:30;30.00;;;14.10;;
77026;SDS011;65956;52.986;17.490;2024-01-30T06:06:56;26.30;;;14.00;;
77026;SDS011;65956;52.986;17.490;2024-01-30T06:09:22;27.30;;;14.10;;
77026;SDS011;65956;52.986;17.490;2024-01-30T06:11:48;31.30;;;14.30;;
77026;SDS011;65956;52.986;17.490;2024-01-30T06:14:14;25.70;;;12.90;;
77026;SDS011;65956;52.986;17.490;2024-01-30T06:16:40;32.00;;;14.60;;
77026;SDS011;65956;52.986;17.490;2024-01-30T06:19:07;28.00;;;15.40;;
77026;SDS011;65956;52.986;17.490;2024-01-30T06:21:33;27.30;;;14.10;;
77026;SDS011;65956;52.986;17.490;2024-01-30T06:24:02;25.20;;;13.70;;
77026;SDS011;65956;52.986;17.490;2024-01-30T06:26:28;27.20;;;14.40;;
77026;SDS011;65956;52.986;17.490;2024-01-30T06:28:55;30.00;;;14.10;;
77026;SDS011;65956;52.986;17.490;2024-01-30T06:31:21;29.10;;;14.20;;
77026;SDS011;65956;52.986;17.490;2024-01-30T06:33:47;27.20;;;13.60;;
77026;SDS011;65956;52.986;17.490;2024-01-30T06:36:13;27.00;;;14.00;;
77026;SDS011;65956;52.986;17.490;2024-01-30T06:38:40;28.40;;;13.90;;
77026;SDS011;65956;52.986;17.490;2024-01-30T06:41:07;26.10;;;13.70;;
77026;SDS011;65956;52.986;17.490;2024-01-30T06:43:33;26.70;;;13.70;;
77026;SDS011;65956;52.986;17.490;2024-01-30T06:45:59;28.70;;;13.70;;
77026;SDS011;65956;52.986;17.490;2024-01-30T06:48:25;29.80;;;16.00;;
77026;SDS011;65956;52.986;17.490;2024-01-30T06:50:54;27.90;;;13.80;;
77026;SDS011;65956;52.986;17.490;2024-01-30T06:53:20;28.40;;;13.60;;
77026;SDS011;65956;52.986;17.490;2024-01-30T06:55:46;27.10;;;13.70;;
77026;SDS011;65956;52.986;17.490;2024-01-30T06:58:13;29.10;;;14.20;;
77026;SDS011;65956;52.986;17.490;2024-01-30T07:00:39;29.30;;;13.90;;
77026;SDS011;65956;52.986;17.490;2024-01-30T07:03:05;29.10;;;14.20;;
77026;SDS011;65956;52.986;17.490;2024-01-30T07:05:32;28.40;;;13.40;;
77026;SDS011;65956;52.986;17.490;2024-01-30T07:07:58;27.80;;;14.70;;
77026;SDS011;65956;52.986;17.490;2024-01-30T07:10:24;26.50;;;15.10;;
77026;SDS011;65956;52.986;17.490;2024-01-30T07:12:51;28.80;;;14.30;;
77026;SDS011;65956;52.986;17.490;2024-01-30T07:15:17;27.40;;;13.80;;
77026;SDS011;65956;52.986;17.490;2024-01-30T07:17:46;25.90;;;14.40;;
77026;SDS011;65956;52.986;17.490;2024-01-30T07:20:12;29.60;;;14.00;;
77026;SDS011;65956;52.986;17.490;2024-01-30T07:22:38;28.30;;;14.50;;
77026;SDS011;65956;52.986;17.490;2024-01-30T07:25:04;27.60;;;14.70;;
77026;SDS011;65956;52.986;17.490;2024-01-30T07:27:31;29.40;;;13.80;;
77026;SDS011;65956;52.986;17.490;2024-01-30T07:29:57;32.50;;;15.80;;
77026;SDS011;65956;52.986;17.490;2024-01-30T07:32:23;27.30;;;13.60;;
77026;SDS011;65956;52.986;17.490;2024-01-30T07:34:49;34.10;;;17.00;;
77026;SDS011;65956;52.986;17.490;2024-01-30T07:37:16;31.50;;;15.80;;
77026;SDS011;65956;52.986;17.490;2024-01-30T07:39:42;65.40;;;26.90;;
77026;SDS011;65956;52.986;17.490;2024-01-30T07:42:08;78.20;;;31.10;;
77026;SDS011;65956;52.986;17.490;2024-01-30T07:44:34;26.10;;;13.20;;
77026;SDS011;65956;52.986;17.490;2024-01-30T07:47:01;29.60;;;14.00;;
77026;SDS011;65956;52.986;17.490;2024-01-30T07:49:28;57.80;;;23.50;;
77026;SDS011;65956;52.986;17.490;2024-01-30T07:51:54;56.30;;;22.50;;
77026;SDS011;65956;52.986;17.490;2024-01-30T07:54:21;48.10;;;20.90;;
77026;SDS011;65956;52.986;17.490;2024-01-30T07:56:47;72.60;;;26.80;;
77026;SDS011;65956;52.986;17.490;2024-01-30T07:59:13;35.20;;;15.90;;
77026;SDS011;65956;52.986;17.490;2024-01-30T08:01:39;135.30;;;46.70;;
77026;SDS011;65956;52.986;17.490;2024-01-30T08:04:05;82.40;;;32.50;;
77026;SDS011;65956;52.986;17.490;2024-01-30T08:06:31;64.70;;;27.20;;
77026;SDS011;65956;52.986;17.490;2024-01-30T08:08:58;49.60;;;20.90;;
77026;SDS011;65956;52.986;17.490;2024-01-30T08:11:25;36.20;;;19.40;;
77026;SDS011;65956;52.986;17.490;2024-01-30T08:13:52;38.30;;;18.70;;
77026;SDS011;65956;52.986;17.490;2024-01-30T08:16:19;37.40;;;17.60;;
77026;SDS011;65956;52.986;17.490;2024-01-30T08:18:45;28.60;;;14.30;;
77026;SDS011;65956;52.986;17.490;2024-01-30T08:21:11;31.40;;;15.20;;
77026;SDS011;65956;52.986;17.490;2024-01-30T08:23:40;37.90;;;21.00;;
77026;SDS011;65956;52.986;17.490;2024-01-30T08:26:06;26.30;;;13.60;;
77026;SDS011;65956;52.986;17.490;2024-01-30T08:28:32;23.20;;;12.90;;
77026;SDS011;65956;52.986;17.490;2024-01-30T08:30:58;30.30;;;16.40;;
77026;SDS011;65956;52.986;17.490;2024-01-30T08:33:24;30.50;;;14.60;;
77026;SDS011;65956;52.986;17.490;2024-01-30T08:35:51;23.30;;;12.00;;
77026;SDS011;65956;52.986;17.490;2024-01-30T08:38:17;26.20;;;13.90;;
77026;SDS011;65956;52.986;17.490;2024-01-30T08:40:43;22.80;;;12.30;;
77026;SDS011;65956;52.986;17.490;2024-01-30T08:43:09;23.00;;;12.60;;
77026;SDS011;65956;52.986;17.490;2024-01-30T08:45:35;24.20;;;12.60;;
77026;SDS011;65956;52.986;17.490;2024-01-30T08:48:02;22.30;;;12.10;;
77026;SDS011;65956;52.986;17.490;2024-01-30T08:50:28;22.10;;;11.70;;
77026;SDS011;65956;52.986;17.490;2024-01-30T08:52:55;25.20;;;12.10;;
77026;SDS011;65956;52.986;17.490;2024-01-30T08:55:22;20.30;;;11.60;;
77026;SDS011;65956;52.986;17.490;2024-01-30T08:57:48;23.40;;;11.80;;
77026;SDS011;65956;52.986;17.490;2024-01-30T09:00:15;20.70;;;11.60;;
77026;SDS011;65956;52.986;17.490;2024-01-30T09:02:42;22.30;;;11.10;;
77026;SDS011;65956;52.986;17.490;2024-01-30T09:05:08;20.50;;;12.30;;
77026;SDS011;65956;52.986;17.490;2024-01-30T09:07:34;22.30;;;12.40;;
77026;SDS011;65956;52.986;17.490;2024-01-30T09:10:00;24.20;;;11.10;;
77026;SDS011;65956;52.986;17.490;2024-01-30T09:12:27;22.80;;;12.20;;
77026;SDS011;65956;52.986;17.490;2024-01-30T09:14:53;22.30;;;11.70;;
77026;SDS011;65956;52.986;17.490;2024-01-30T09:48:06;43.80;;;20.90;;
77026;SDS011;65956;52.986;17.490;2024-01-30T09:50:33;52.30;;;26.20;;
77026;SDS011;65956;52.986;17.490;2024-01-30T09:53:02;23.90;;;12.40;;
77026;SDS011;65956;52.986;17.490;2024-01-30T09:55:28;25.40;;;16.10;;
77026;SDS011;65956;52.986;17.490;2024-01-30T09:57:54;32.40;;;16.20;;
77026;SDS011;65956;52.986;17.490;2024-01-30T10:00:21;32.30;;;16.80;;
77026;SDS011;65956;52.986;17.490;2024-01-30T10:05:18;49.90;;;24.20;;
77026;SDS011;65956;52.986;17.490;2024-01-30T10:07:54;61.50;;;27.10;;
77026;SDS011;65956;52.986;17.490;2024-01-30T10:10:21;73.20;;;31.90;;
77026;SDS011;65956;52.986;17.490;2024-01-30T10:12:49;75.60;;;35.20;;
77026;SDS011;65956;52.986;17.490;2024-01-30T10:15:15;68.30;;;31.90;;
77026;SDS011;65956;52.986;17.490;2024-01-30T10:17:44;48.90;;;24.50;;
77026;SDS011;65956;52.986;17.490;2024-01-30T10:20:10;41.20;;;20.60;;
77026;SDS011;65956;52.986;17.490;2024-01-30T10:22:37;51.20;;;25.00;;
77026;SDS011;65956;52.986;17.490;2024-01-30T10:25:03;92.20;;;42.20;;
77026;SDS011;65956;52.986;17.490;2024-01-30T10:27:30;32.10;;;17.70;;
77026;SDS011;65956;52.986;17.490;2024-01-30T10:29:57;32.40;;;18.60;;
77026;SDS011;65956;52.986;17.490;2024-01-30T10:32:23;24.60;;;14.90;;
77026;SDS011;65956;52.986;17.490;2024-01-30T10:34:51;37.40;;;22.50;;
77026;SDS011;65956;52.986;17.490;2024-01-30T10:37:17;19.80;;;11.90;;
77026;SDS011;65956;52.986;17.490;2024-01-30T10:39:45;24.60;;;14.50;;
77026;SDS011;65956;52.986;17.490;2024-01-30T10:47:35;30.00;;;20.40;;
77026;SDS011;65956;52.986;17.490;2024-01-30T10:50:02;21.00;;;12.20;;
77026;SDS011;65956;52.986;17.490;2024-01-30T10:52:32;23.70;;;13.00;;
77026;SDS011;65956;52.986;17.490;2024-01-30T10:54:59;24.60;;;13.90;;
77026;SDS011;65956;52.986;17.490;2024-01-30T10:57:25;24.00;;;14.50;;
77026;SDS011;65956;52.986;17.490;2024-01-30T10:59:53;24.00;;;13.10;;
77026;SDS011;65956;52.986;17.490;2024-01-30T11:02:25;25.20;;;17.10;;
77026;SDS011;65956;52.986;17.490;2024-01-30T11:04:56;28.70;;;18.30;;
77026;SDS011;65956;52.986;17.490;2024-01-30T11:07:24;26.20;;;17.30;;
77026;SDS011;65956;52.986;17.490;2024-01-30T11:09:53;20.80;;;12.70;;
77026;SDS011;65956;52.986;17.490;2024-01-30T11:12:27;52.50;;;26.70;;
77026;SDS011;65956;52.986;17.490;2024-01-30T11:15:07;218.60;;;92.70;;
77026;SDS011;65956;52.986;17.490;2024-01-30T11:17:41;91.50;;;45.00;;
77026;SDS011;65956;52.986;17.490;2024-01-30T11:20:12;84.60;;;44.70;;
77026;SDS011;65956;52.986;17.490;2024-01-30T11:22:42;27.40;;;15.80;;
77026;SDS011;65956;52.986;17.490;2024-01-30T11:25:17;23.50;;;14.30;;
77026;SDS011;65956;52.986;17.490;2024-01-30T11:27:46;32.60;;;22.40;;
77026;SDS011;65956;52.986;17.490;2024-01-30T11:30:24;23.10;;;14.40;;
77026;SDS011;65956;52.986;17.490;2024-01-30T11:33:08;20.20;;;13.80;;
77026;SDS011;65956;52.986;17.490;2024-01-30T11:35:40;27.80;;;17.70;;
77026;SDS011;65956;52.986;17.490;2024-01-30T11:38:08;21.10;;;13.80;;
77026;SDS011;65956;52.986;17.490;2024-01-30T11:40:36;21.90;;;14.30;;
77026;SDS011;65956;52.986;17.490;2024-01-30T11:43:04;20.10;;;12.20;;
77026;SDS011;65956;52.986;17.490;2024-01-30T11:45:32;19.80;;;11.70;;
77026;SDS011;65956;52.986;17.490;2024-01-30T11:47:58;23.00;;;14.60;;
77026;SDS011;65956;52.986;17.490;2024-01-30T11:50:31;17.50;;;12.10;;
77026;SDS011;65956;52.986;17.490;2024-01-30T11:53:02;16.40;;;11.70;;
77026;SDS011;65956;52.986;17.490;2024-01-30T11:55:29;15.90;;;11.50;;
77026;SDS011;65956;52.986;17.490;2024-01-30T11:57:59;16.30;;;12.70;;
77026;SDS011;65956;52.986;17.490;2024-01-30T12:00:25;16.00;;;11.80;;
77026;SDS011;65956;52.986;17.490;2024-01-30T12:02:52;16.00;;;12.20;;
77026;SDS011;65956;52.986;17.490;2024-01-30T12:05:22;16.70;;;13.20;;
77026;SDS011;65956;52.986;17.490;2024-01-30T12:07:51;17.60;;;13.10;;
77026;SDS011;65956;52.986;17.490;2024-01-30T12:10:17;18.60;;;15.60;;
77026;SDS011;65956;52.986;17.490;2024-01-30T12:12:48;16.90;;;12.80;;
77026;SDS011;65956;52.986;17.490;2024-01-30T12:15:16;18.20;;;13.70;;
77026;SDS011;65956;52.986;17.490;2024-01-30T12:17:42;18.30;;;13.30;;
77026;SDS011;65956;52.986;17.490;2024-01-30T12:20:13;17.60;;;14.10;;
77026;SDS011;65956;52.986;17.490;2024-01-30T12:22:42;22.70;;;14.70;;
77026;SDS011;65956;52.986;17.490;2024-01-30T12:25:10;19.50;;;15.20;;
77026;SDS011;65956;52.986;17.490;2024-01-30T12:27:37;20.70;;;15.70;;
77026;SDS011;65956;52.986;17.490;2024-01-30T12:30:07;38.20;;;24.40;;
77026;SDS011;65956;52.986;17.490;2024-01-30T12:32:39;17.20;;;13.80;;
77026;SDS011;65956;52.986;17.490;2024-01-30T12:35:17;16.90;;;13.60;;
77026;SDS011;65956;52.986;17.490;2024-01-30T12:37:45;20.50;;;15.10;;
77026;SDS011;65956;52.986;17.490;2024-01-30T12:40:13;18.30;;;14.10;;
77026;SDS011;65956;52.986;17.490;2024-01-30T12:42:40;27.50;;;18.80;;
77026;SDS011;65956;52.986;17.490;2024-01-30T12:45:13;17.20;;;13.10;;
77026;SDS011;65956;52.986;17.490;2024-01-30T12:47:41;17.60;;;12.90;;
77026;SDS011;65956;52.986;17.490;2024-01-30T12:50:07;16.50;;;11.80;;
77026;SDS011;65956;52.986;17.490;2024-01-30T12:52:34;16.80;;;12.20;;
77026;SDS011;65956;52.986;17.490;2024-01-30T12:55:01;22.00;;;13.20;;
77026;SDS011;65956;52.986;17.490;2024-01-30T12:57:30;23.10;;;14.60;;
77026;SDS011;65956;52.986;17.490;2024-01-30T12:59:56;28.20;;;15.50;;
77026;SDS011;65956;52.986;17.490;2024-01-30T13:02:22;22.00;;;14.30;;
77026;SDS011;65956;52.986;17.490;2024-01-30T13:04:49;38.50;;;22.10;;
77026;SDS011;65956;52.986;17.490;2024-01-30T13:07:15;55.10;;;25.00;;
77026;SDS011;65956;52.986;17.490;2024-01-30T13:09:41;53.10;;;23.60;;
77026;SDS011;65956;52.986;17.490;2024-01-30T13:12:07;60.40;;;29.30;;
77026;SDS011;65956;52.986;17.490;2024-01-30T13:14:34;65.40;;;28.40;;
77026;SDS011;65956;52.986;17.490;2024-01-30T13:17:00;50.40;;;25.10;;
77026;SDS011;65956;52.986;17.490;2024-01-30T13:19:26;27.70;;;17.40;;
77026;SDS011;65956;52.986;17.490;2024-01-30T13:21:53;49.20;;;21.60;;
77026;SDS011;65956;52.986;17.490;2024-01-30T13:24:19;84.40;;;65.30;;
77026;SDS011;65956;52.986;17.490;2024-01-30T13:26:48;124.40;;;111.40;;
77026;SDS011;65956;52.986;17.490;2024-01-30T13:29:14;137.80;;;109.90;;
77026;SDS011;65956;52.986;17.490;2024-01-30T13:31:41;107.20;;;82.70;;
77026;SDS011;65956;52.986;17.490;2024-01-30T13:34:27;240.30;;;208.60;;
77026;SDS011;65956;52.986;17.490;2024-01-30T13:37:18;68.70;;;46.00;;
77026;SDS011;65956;52.986;17.490;2024-01-30T13:39:44;55.70;;;35.10;;
77026;SDS011;65956;52.986;17.490;2024-01-30T13:42:10;35.50;;;19.80;;
77026;SDS011;65956;52.986;17.490;2024-01-30T13:44:36;34.30;;;21.40;;
77026;SDS011;65956;52.986;17.490;2024-01-30T13:47:02;26.90;;;15.40;;
77026;SDS011;65956;52.986;17.490;2024-01-30T13:49:28;56.30;;;26.60;;
77026;SDS011;65956;52.986;17.490;2024-01-30T13:51:55;38.80;;;20.70;;
77026;SDS011;65956;52.986;17.490;2024-01-30T13:54:21;54.50;;;27.40;;
77026;SDS011;65956;52.986;17.490;2024-01-30T13:56:47;50.60;;;25.10;;
77026;SDS011;65956;52.986;17.490;2024-01-30T13:59:13;43.40;;;21.50;;
77026;SDS011;65956;52.986;17.490;2024-01-30T14:01:39;36.80;;;19.40;;
77026;SDS011;65956;52.986;17.490;2024-01-30T14:04:05;42.50;;;22.40;;
77026;SDS011;65956;52.986;17.490;2024-01-30T14:06:31;32.30;;;18.20;;
77026;SDS011;65956;52.986;17.490;2024-01-30T14:08:57;38.50;;;20.30;;
77026;SDS011;65956;52.986;17.490;2024-01-30T14:11:24;37.60;;;20.10;;
77026;SDS011;65956;52.986;17.490;2024-01-30T14:13:50;38.10;;;20.20;;
77026;SDS011;65956;52.986;17.490;2024-01-30T14:16:16;38.40;;;20.30;;
77026;SDS011;65956;52.986;17.490;2024-01-30T14:18:43;32.10;;;18.10;;
77026;SDS011;65956;52.986;17.490;2024-01-30T14:21:16;27.90;;;15.40;;
77026;SDS011;65956;52.986;17.490;2024-01-30T14:23:42;24.60;;;14.60;;
77026;SDS011;65956;52.986;17.490;2024-01-30T14:26:15;20.90;;;12.20;;
77026;SDS011;65956;52.986;17.490;2024-01-30T14:28:41;24.70;;;14.20;;
77026;SDS011;65956;52.986;17.490;2024-01-30T14:31:11;23.30;;;12.90;;
77026;SDS011;65956;52.986;17.490;2024-01-30T14:33:41;22.20;;;13.50;;
77026;SDS011;65956;52.986;17.490;2024-01-30T14:36:07;21.50;;;13.00;;
77026;SDS011;65956;52.986;17.490;2024-01-30T14:38:35;20.50;;;13.70;;
77026;SDS011;65956;52.986;17.490;2024-01-30T14:41:01;32.20;;;18.80;;
77026;SDS011;65956;52.986;17.490;2024-01-30T14:43:27;25.30;;;13.90;;
77026;SDS011;65956;52.986;17.490;2024-01-30T14:45:53;43.30;;;22.70;;